createdAt,value
2018-01-31T01:52:43.283Z,113.20
2018-01-31T01:58:48.790Z,103.17
2018-01-31T02:04:54.077Z,92.17
2018-01-31T02:10:59.152Z,75.67
2018-01-31T02:17:04.358Z,70.80
2018-01-31T02:23:09.737Z,67.67
2018-01-31T02:29:14.781Z,65.33
2018-01-31T02:35:19.992Z,101.17
2018-01-31T02:41:24.999Z,72.00
2018-01-31T02:47:30.287Z,61.47
2018-01-31T02:53:35.373Z,58.97
2018-01-31T02:59:40.347Z,59.17
2018-01-31T03:05:45.321Z,58.40
2018-01-31T03:11:50.639Z,68.43
2018-01-31T03:17:55.725Z,62.43
2018-01-31T03:24:01.228Z,61.73
2018-01-31T03:30:06.612Z,57.60
2018-01-31T03:36:11.781Z,59.60
2018-01-31T03:42:17.498Z,61.50
2018-01-31T03:48:22.646Z,68.83
2018-01-31T03:54:27.934Z,62.37
2018-01-31T04:00:33.294Z,73.40
2018-01-31T04:06:38.595Z,91.20
2018-01-31T04:12:43.619Z,112.10
2018-01-31T04:18:48.769Z,143.10
2018-01-31T04:24:54.138Z,156.87
2018-01-31T04:30:59.136Z,124.77
2018-01-31T04:37:04.359Z,121.27
2018-01-31T04:43:09.786Z,84.93
2018-01-31T04:49:14.947Z,67.60
2018-01-31T04:55:21.132Z,62.47
2018-01-31T05:01:26.420Z,53.53
2018-01-31T05:07:31.752Z,52.23
2018-01-31T05:13:36.921Z,70.10
2018-01-31T05:19:42.179Z,84.17
2018-01-31T05:25:47.267Z,94.20
2018-01-31T05:31:52.540Z,125.80
2018-01-31T05:37:57.779Z,134.50
2018-01-31T05:44:02.866Z,134.33
2018-01-31T05:50:07.900Z,142.50
2018-01-31T05:56:12.946Z,162.47
2018-01-31T06:02:17.996Z,82.50
2018-01-31T06:08:23.179Z,78.27
2018-01-31T06:14:28.892Z,82.97
2018-01-31T06:20:33.996Z,95.83
2018-01-31T06:26:39.125Z,99.50
2018-01-31T06:32:44.289Z,143.73
2018-01-31T06:38:49.673Z,125.03
2018-01-31T06:44:55.088Z,114.87
2018-01-31T06:51:00.301Z,131.70
2018-01-31T06:57:06.326Z,131.47
2018-01-31T07:03:11.752Z,107.67
2018-01-31T07:09:17.113Z,109.53
2018-01-31T07:15:22.135Z,120.50
2018-01-31T07:21:27.474Z,126.77
2018-01-31T07:27:32.632Z,138.40
2018-01-31T07:33:37.964Z,141.40
2018-01-31T07:39:43.465Z,131.37
2018-01-31T07:45:48.539Z,138.07
2018-01-31T07:51:53.848Z,137.13
2018-01-31T07:57:59.100Z,140.43
2018-01-31T10:23:50.173Z,80.33
2018-01-31T11:42:50.608Z,38.00
2018-01-31T11:48:55.967Z,46.10
2018-01-31T11:55:01.411Z,51.20
2018-01-31T12:01:06.624Z,46.85
2018-01-31T12:07:12.041Z,46.20
2018-01-31T12:13:22.876Z,46.28
2018-01-31T12:19:35.696Z,42.10
2018-01-31T12:25:46.826Z,47.20
2018-01-31T12:31:57.891Z,42.13
2018-01-31T12:38:09.015Z,43.77
2018-01-31T12:44:14.185Z,50.22
2018-01-31T12:50:24.734Z,56.35
2018-01-31T12:56:35.591Z,61.20
2018-01-31T13:09:19.113Z,53.90
2018-01-31T13:15:29.702Z,54.93
2018-01-31T13:21:40.238Z,50.47
2018-01-31T13:27:56.868Z,52.70
2018-01-31T13:34:07.847Z,48.43
2018-01-31T13:40:18.388Z,52.83
2018-01-31T13:46:29.201Z,49.10
2018-01-31T13:52:42.950Z,49.10
2018-01-31T13:58:53.920Z,47.05
2018-01-31T14:05:04.652Z,45.92
2018-01-31T14:11:15.361Z,43.97
2018-01-31T14:17:26.181Z,43.15
2018-01-31T14:23:37.117Z,46.60
2018-01-31T14:29:48.679Z,46.07
2018-01-31T18:32:50.229Z,94.40
2018-01-31T18:38:55.537Z,68.43
2018-01-31T18:45:01.060Z,61.27
2018-01-31T18:51:06.201Z,58.33
2018-01-31T18:57:11.524Z,59.43
2018-01-31T19:03:17.020Z,59.57
2018-01-31T19:09:22.569Z,60.13
2018-01-31T19:15:27.960Z,65.13
2018-01-31T19:21:33.562Z,62.30
2018-01-31T19:27:38.625Z,61.53
2018-01-31T19:33:43.965Z,60.43
2018-01-31T19:39:49.210Z,60.33
2018-01-31T19:45:54.393Z,58.00
2018-01-31T19:51:59.711Z,57.30
2018-01-31T19:58:05.114Z,55.83
2018-01-31T20:04:10.214Z,56.77
2018-01-31T20:10:15.432Z,55.13
2018-01-31T20:16:20.585Z,59.17
2018-01-31T20:22:25.833Z,58.20
2018-01-31T20:28:30.991Z,62.03
2018-01-31T20:34:36.041Z,59.17
2018-01-31T20:40:41.276Z,51.57
2018-01-31T20:46:46.786Z,54.60
2018-01-31T20:52:52.566Z,53.50
2018-01-31T20:58:58.219Z,51.70
2018-01-31T21:05:03.469Z,50.03
2018-01-31T21:11:08.575Z,50.73
2018-01-31T21:17:14.019Z,46.90
2018-01-31T21:23:19.212Z,45.63
2018-01-31T21:29:24.443Z,49.00
2018-01-31T21:35:29.484Z,50.30
2018-01-31T21:41:34.730Z,53.17
2018-01-31T21:47:39.937Z,58.07
2018-01-31T21:53:45.081Z,53.83
2018-01-31T21:59:50.279Z,60.60
2018-01-31T22:05:55.482Z,62.40
2018-01-31T22:12:00.766Z,59.03
2018-01-31T22:18:05.898Z,56.13
2018-01-31T22:24:10.926Z,55.17
2018-01-31T22:30:16.155Z,48.93
2018-01-31T22:36:21.184Z,50.10
2018-01-31T22:42:26.304Z,53.87
2018-01-31T22:48:31.796Z,54.77
2018-01-31T22:54:37.189Z,50.60
2018-01-31T23:00:42.285Z,47.33
2018-01-31T23:06:47.957Z,46.20
2018-01-31T23:12:58.870Z,44.67
2018-01-31T23:19:04.424Z,44.60
2018-01-31T23:25:09.549Z,44.10
2018-01-31T23:31:14.741Z,45.37
2018-01-31T23:37:19.956Z,46.43
2018-01-31T23:43:25.011Z,45.27
2018-01-31T23:49:30.186Z,45.97
2018-01-31T23:55:35.463Z,47.73
